createdAt,value
2023-03-16T00:01:17.284Z,100901.59
2023-03-16T00:04:14.200Z,100907.25
2023-03-16T00:07:06.631Z,100905.84
2023-03-16T00:09:56.650Z,100908.69
2023-03-16T00:12:45.464Z,100903.09
2023-03-16T00:15:35.557Z,100912.38
2023-03-16T00:18:27.226Z,100915.44
2023-03-16T00:21:16.545Z,100908.53
2023-03-16T00:24:07.943Z,100906.25
2023-03-16T00:26:58.391Z,100906.25
2023-03-16T00:29:49.219Z,100920.69
2023-03-16T00:32:39.247Z,100914.69
2023-03-16T00:35:28.043Z,100908.03
2023-03-16T00:38:16.690Z,100913.63
2023-03-16T00:41:06.641Z,100916.69
2023-03-16T00:43:56.659Z,100918.13
2023-03-16T00:46:45.374Z,100917.00
2023-03-16T00:49:34.796Z,100911.84
2023-03-16T00:52:25.340Z,100915.72
2023-03-16T00:55:13.902Z,100921.06
2023-03-16T00:58:05.107Z,100925.19
2023-03-16T01:00:57.245Z,100919.03
2023-03-16T01:03:46.145Z,100927.03
2023-03-16T01:06:35.483Z,100932.56
2023-03-16T01:09:24.098Z,100926.78
2023-03-16T01:12:17.174Z,100925.28
2023-03-16T01:15:07.002Z,100935.88
2023-03-16T01:17:57.017Z,100940.13
2023-03-16T01:20:50.750Z,100946.47
2023-03-16T01:23:39.482Z,100939.81
2023-03-16T01:26:28.463Z,100948.84
2023-03-16T01:29:17.160Z,100951.72
2023-03-16T01:32:06.460Z,100959.09
2023-03-16T01:34:56.401Z,100963.22
2023-03-16T01:37:45.316Z,100958.50
2023-03-16T01:40:33.931Z,100958.25
2023-03-16T01:43:24.101Z,100966.81
2023-03-16T01:46:20.326Z,100967.34
2023-03-16T01:49:14.769Z,100964.88
2023-03-16T01:52:06.974Z,100957.88
2023-03-16T01:54:59.489Z,100959.91
2023-03-16T01:57:48.570Z,100961.56
2023-03-16T02:00:41.872Z,100962.94
2023-03-16T02:03:34.494Z,100965.59
2023-03-16T02:06:24.031Z,100962.56
2023-03-16T02:09:14.948Z,100957.59
2023-03-16T02:12:03.926Z,100957.88
2023-03-16T02:14:52.980Z,100953.75
2023-03-16T02:17:43.688Z,100957.78
2023-03-16T02:20:38.498Z,100956.13
2023-03-16T02:23:28.202Z,100957.78
2023-03-16T02:26:25.697Z,100957.97
2023-03-16T02:29:21.087Z,100956.97
2023-03-16T02:32:12.288Z,100961.28
2023-03-16T02:35:02.469Z,100963.97
2023-03-16T02:37:52.530Z,100960.75
2023-03-16T02:40:44.152Z,100957.78
2023-03-16T02:43:35.558Z,100965.41
2023-03-16T02:46:27.770Z,100971.56
2023-03-16T02:49:26.096Z,100969.66
2023-03-16T02:52:14.854Z,100970.47
2023-03-16T02:55:06.114Z,100968.66
2023-03-16T02:57:54.806Z,100968.34
2023-03-16T03:00:44.976Z,100970.00
2023-03-16T03:03:34.596Z,100975.19
2023-03-16T03:06:25.545Z,100972.78
2023-03-16T03:09:14.514Z,100969.84
2023-03-16T03:12:03.179Z,100970.66
2023-03-16T03:14:51.922Z,100968.81
2023-03-16T03:17:43.163Z,100971.97
2023-03-16T03:20:34.233Z,100972.13
2023-03-16T03:23:25.533Z,100973.31
2023-03-16T03:26:15.588Z,100977.91
2023-03-16T03:29:04.949Z,100971.22
2023-03-16T03:31:55.145Z,100984.00
2023-03-16T03:34:44.128Z,100980.88
2023-03-16T03:37:38.291Z,100979.66
2023-03-16T03:40:30.138Z,100987.69
2023-03-16T03:43:19.605Z,100989.34
2023-03-16T03:46:08.989Z,100991.03
2023-03-16T03:49:03.706Z,100990.66
2023-03-16T03:51:52.524Z,100992.38
2023-03-16T03:54:41.311Z,100999.56
2023-03-16T03:57:31.376Z,101002.03
2023-03-16T04:00:22.018Z,101005.34
2023-03-16T04:03:10.802Z,101001.56
2023-03-16T04:05:59.592Z,100994.88
2023-03-16T04:08:48.344Z,100987.56
2023-03-16T04:11:37.098Z,100990.44
2023-03-16T04:14:29.558Z,100996.06
2023-03-16T04:17:20.428Z,100988.03
2023-03-16T04:20:14.790Z,101006.03
2023-03-16T04:23:05.994Z,100996.69
2023-03-16T04:25:56.005Z,100997.06
2023-03-16T04:28:46.141Z,100992.47
2023-03-16T04:31:37.557Z,100997.44
2023-03-16T04:34:26.970Z,101001.47
2023-03-16T04:37:17.978Z,100997.72
2023-03-16T04:40:12.186Z,101000.75
2023-03-16T04:43:01.734Z,100996.69
2023-03-16T04:45:51.138Z,100994.31
2023-03-16T04:48:42.379Z,100995.94
2023-03-16T04:51:31.891Z,100988.41
2023-03-16T04:54:21.187Z,100988.97
2023-03-16T04:57:10.845Z,100987.78
2023-03-16T05:00:00.052Z,100985.91
2023-03-16T05:02:50.153Z,100991.34
2023-03-16T05:05:42.997Z,100986.59
2023-03-16T05:08:32.923Z,100995.63
2023-03-16T05:11:21.580Z,100996.91
2023-03-16T05:14:10.773Z,101003.56
2023-03-16T05:16:59.448Z,100992.41
2023-03-16T05:19:48.166Z,100992.88
2023-03-16T05:22:38.100Z,101003.19
2023-03-16T05:25:26.795Z,101002.22
2023-03-16T05:28:17.277Z,101007.22
2023-03-16T05:31:06.099Z,101010.91
2023-03-16T05:33:55.347Z,101009.44
2023-03-16T05:36:45.162Z,101010.03
2023-03-16T05:39:35.364Z,101009.69
2023-03-16T05:42:24.387Z,101008.13
2023-03-16T05:45:15.707Z,101013.66
2023-03-16T05:48:05.885Z,101011.19
2023-03-16T05:50:55.013Z,101015.75
2023-03-16T05:53:46.727Z,101017.13
2023-03-16T05:56:37.094Z,101021.25
2023-03-16T05:59:25.731Z,101029.94
2023-03-16T06:02:14.503Z,101026.78
2023-03-16T06:05:03.200Z,101027.81
2023-03-16T06:07:52.080Z,101028.50
2023-03-16T06:10:40.765Z,101029.69
2023-03-16T06:13:31.012Z,101029.16
2023-03-16T06:16:19.763Z,101028.72
2023-03-16T06:19:08.672Z,101028.66
2023-03-16T06:21:57.580Z,101034.63
2023-03-16T06:24:46.449Z,101030.59
2023-03-16T06:27:35.343Z,101032.50
2023-03-16T06:30:28.067Z,101036.94
2023-03-16T06:33:17.135Z,101033.16
2023-03-16T06:36:06.392Z,101032.28
2023-03-16T06:38:55.170Z,101040.03
2023-03-16T06:41:44.336Z,101038.91
2023-03-16T06:44:33.367Z,101036.25
2023-03-16T06:47:23.541Z,101037.91
2023-03-16T06:50:13.086Z,101042.91
2023-03-16T06:53:01.730Z,101039.56
2023-03-16T06:55:50.545Z,101047.28
2023-03-16T06:58:39.234Z,101048.09
2023-03-16T07:01:27.910Z,101046.53
2023-03-16T07:04:20.137Z,101047.31
2023-03-16T07:07:08.862Z,101044.88
2023-03-16T07:09:57.543Z,101040.50
2023-03-16T07:12:46.404Z,101053.16
2023-03-16T07:15:35.182Z,101054.50
2023-03-16T07:18:25.883Z,101047.50
2023-03-16T07:21:16.316Z,101056.25
2023-03-16T07:24:05.267Z,101053.28
2023-03-16T07:26:53.906Z,101063.25
2023-03-16T07:29:42.621Z,101061.13
2023-03-16T07:32:32.376Z,101068.97
2023-03-16T07:35:21.682Z,101066.81
2023-03-16T07:38:12.248Z,101061.63
2023-03-16T07:41:00.977Z,101057.97
2023-03-16T07:43:49.744Z,101051.50
2023-03-16T07:46:38.745Z,101055.63
2023-03-16T07:49:27.738Z,101048.63
2023-03-16T07:52:16.296Z,101049.84
2023-03-16T07:55:07.363Z,101053.88
2023-03-16T07:57:56.364Z,101046.88
2023-03-16T08:00:45.074Z,101058.19
2023-03-16T08:03:33.734Z,101054.31
2023-03-16T08:06:25.383Z,101062.91
2023-03-16T08:09:14.033Z,101061.34
2023-03-16T08:12:04.302Z,101060.03
2023-03-16T08:14:54.589Z,101063.44
2023-03-16T08:17:43.215Z,101057.66
2023-03-16T08:20:32.469Z,101060.31
2023-03-16T08:23:22.335Z,101053.16
2023-03-16T08:26:11.674Z,101059.22
2023-03-16T08:29:03.421Z,101064.56
2023-03-16T08:31:52.194Z,101060.88
2023-03-16T08:34:46.183Z,101067.53
2023-03-16T08:37:34.996Z,101064.56
2023-03-16T08:40:25.631Z,101061.63
2023-03-16T08:43:17.309Z,101068.72
2023-03-16T08:46:08.153Z,101064.56
2023-03-16T08:48:56.890Z,101066.22
2023-03-16T08:51:46.540Z,101066.84
2023-03-16T08:54:35.265Z,101067.53
2023-03-16T08:57:24.373Z,101078.09
2023-03-16T09:00:14.855Z,101066.78
2023-03-16T09:03:05.510Z,101068.91
2023-03-16T09:05:54.591Z,101063.28
2023-03-16T09:08:44.367Z,101058.38
2023-03-16T09:11:33.737Z,101059.97
2023-03-16T09:14:22.371Z,101075.25
2023-03-16T09:17:12.849Z,101065.31
2023-03-16T09:20:19.599Z,101075.63
2023-03-16T09:23:10.697Z,101076.47
2023-03-16T09:26:00.580Z,101077.00
2023-03-16T09:28:49.698Z,101075.25
2023-03-16T09:31:38.702Z,101072.50
2023-03-16T09:34:28.549Z,101067.16
2023-03-16T09:37:18.976Z,101067.88
2023-03-16T09:40:12.017Z,101067.50
2023-03-16T09:43:12.742Z,101065.50
2023-03-16T09:46:05.546Z,101070.84
2023-03-16T09:48:54.334Z,101063.81
2023-03-16T09:51:46.946Z,101064.19
2023-03-16T09:54:42.188Z,101063.81
2023-03-16T09:57:34.795Z,101053.03
2023-03-16T10:00:26.283Z,101049.81
2023-03-16T10:03:27.077Z,101051.47
2023-03-16T10:06:17.071Z,101051.84
2023-03-16T10:09:10.496Z,101055.47
2023-03-16T10:12:03.885Z,101053.41
2023-03-16T10:14:57.783Z,101057.19
2023-03-16T10:17:52.643Z,101057.50
2023-03-16T10:20:42.305Z,101050.19
2023-03-16T10:23:34.328Z,101044.84
2023-03-16T10:26:25.567Z,101049.09
2023-03-16T10:29:16.668Z,101053.50
2023-03-16T10:32:14.579Z,101049.34
2023-03-16T10:35:07.364Z,101045.28
2023-03-16T10:37:58.544Z,101053.13
2023-03-16T10:40:47.700Z,101049.59
2023-03-16T10:43:37.037Z,101056.19
2023-03-16T10:46:29.547Z,101049.47
2023-03-16T10:49:27.592Z,101044.97
2023-03-16T10:52:20.939Z,101037.94
2023-03-16T10:55:13.289Z,101047.78
2023-03-16T10:58:03.401Z,101041.97
2023-03-16T11:00:53.603Z,101031.75
2023-03-16T11:03:43.695Z,101035.94
2023-03-16T11:06:34.546Z,101025.69
2023-03-16T11:09:26.155Z,101028.53
2023-03-16T11:12:17.244Z,101025.50
2023-03-16T11:15:11.569Z,101025.56
2023-03-16T11:18:05.936Z,101011.19
2023-03-16T11:20:57.788Z,101011.94
2023-03-16T11:23:49.720Z,101004.56
2023-03-16T11:26:42.913Z,101008.25
2023-03-16T11:29:45.179Z,101006.38
2023-03-16T11:32:35.689Z,100999.84
2023-03-16T11:35:29.311Z,100995.78
2023-03-16T11:38:20.870Z,100988.78
2023-03-16T11:41:12.436Z,100984.81
2023-03-16T11:44:06.997Z,100986.38
2023-03-16T11:47:00.466Z,100984.66
2023-03-16T11:49:54.576Z,100988.78
2023-03-16T11:52:48.572Z,100979.72
2023-03-16T11:55:43.384Z,100975.94
2023-03-16T11:58:42.042Z,100965.88
2023-03-16T12:01:43.236Z,100969.56
2023-03-16T12:05:01.593Z,100967.44
2023-03-16T12:07:58.141Z,100969.56
2023-03-16T12:10:52.188Z,100963.47
2023-03-16T12:14:08.514Z,100965.88
2023-03-16T12:17:01.229Z,100962.16
2023-03-16T12:19:54.085Z,100944.06
2023-03-16T12:22:45.390Z,100945.50
2023-03-16T12:25:36.625Z,100948.16
2023-03-16T12:28:31.834Z,100948.16
2023-03-16T12:31:22.654Z,100937.13
2023-03-16T12:34:25.633Z,100931.09
2023-03-16T12:37:23.940Z,100932.69
2023-03-16T12:40:23.492Z,100934.16
2023-03-16T12:43:25.719Z,100928.81
2023-03-16T12:46:18.642Z,100927.00
2023-03-16T12:49:08.321Z,100933.41
2023-03-16T12:52:01.556Z,100924.38
2023-03-16T12:54:53.788Z,100929.72
2023-03-16T12:57:44.057Z,100928.44
2023-03-16T13:00:37.554Z,100920.16
2023-03-16T13:03:31.341Z,100913.16
2023-03-16T13:06:23.494Z,100911.50
2023-03-16T13:09:13.537Z,100908.94
2023-03-16T13:12:05.076Z,100914.22
2023-03-16T13:14:55.010Z,100907.06
2023-03-16T13:17:44.419Z,100905.13
2023-03-16T13:20:39.407Z,100900.69
2023-03-16T13:23:30.164Z,100900.63
2023-03-16T13:26:20.783Z,100888.44
2023-03-16T13:29:31.187Z,100886.69
2023-03-16T13:32:33.359Z,100881.53
2023-03-16T13:35:23.292Z,100884.03
2023-03-16T13:38:19.002Z,100883.00
2023-03-16T13:41:16.871Z,100891.66
2023-03-16T13:44:06.541Z,100887.75
2023-03-16T13:46:55.124Z,100881.03
2023-03-16T13:49:47.246Z,100876.06
2023-03-16T13:52:36.861Z,100876.47
2023-03-16T13:55:32.293Z,100877.78
2023-03-16T13:58:24.270Z,100868.34
2023-03-16T14:01:20.396Z,100864.13
2023-03-16T14:04:14.017Z,100857.75
2023-03-16T14:07:04.355Z,100855.16
2023-03-16T14:09:53.759Z,100857.00
2023-03-16T14:12:52.655Z,100844.91
2023-03-16T14:15:50.906Z,100846.56
2023-03-16T14:18:42.544Z,100846.47
2023-03-16T14:21:34.092Z,100836.34
2023-03-16T14:24:31.112Z,100836.25
2023-03-16T14:27:22.833Z,100831.69
2023-03-16T14:30:20.212Z,100837.75
2023-03-16T14:33:27.368Z,100843.72
2023-03-16T14:36:17.717Z,100848.94
2023-03-16T14:39:13.297Z,100845.78
2023-03-16T14:42:06.961Z,100837.59
2023-03-16T14:44:55.765Z,100851.09
2023-03-16T14:47:48.504Z,100836.88
2023-03-16T14:50:37.487Z,100843.31
2023-03-16T14:53:28.672Z,100838.25
2023-03-16T14:56:17.822Z,100845.66
2023-03-16T14:59:09.028Z,100839.72
2023-03-16T15:01:58.139Z,100836.34
2023-03-16T15:04:49.492Z,100843.84
2023-03-16T15:07:40.650Z,100827.09
2023-03-16T15:10:31.950Z,100824.41
2023-03-16T15:13:35.079Z,100827.97
2023-03-16T15:16:24.103Z,100815.97
2023-03-16T15:19:16.206Z,100813.97
2023-03-16T15:22:07.032Z,100818.44
2023-03-16T15:25:00.163Z,100809.25
2023-03-16T15:27:49.499Z,100811.94
2023-03-16T15:30:38.157Z,100820.59
2023-03-16T15:33:27.956Z,100821.34
2023-03-16T15:36:18.278Z,100813.72
2023-03-16T15:39:10.009Z,100822.81
2023-03-16T15:41:58.614Z,100815.91
2023-03-16T15:44:48.378Z,100816.91
2023-03-16T15:47:37.170Z,100815.81
2023-03-16T15:50:26.182Z,100814.56
2023-03-16T15:53:29.826Z,100798.69
2023-03-16T15:56:26.569Z,100781.59
2023-03-16T15:59:17.231Z,100785.78
2023-03-16T16:02:26.262Z,100777.81
2023-03-16T16:05:15.054Z,100786.13
2023-03-16T16:08:05.671Z,100800.47
2023-03-16T16:10:54.627Z,100798.28
2023-03-16T16:13:45.465Z,100806.78
2023-03-16T16:16:34.350Z,100812.69
2023-03-16T16:19:23.319Z,100800.91
2023-03-16T16:22:13.752Z,100807.13
2023-03-16T16:25:05.292Z,100808.28
2023-03-16T16:27:53.933Z,100806.81
2023-03-16T16:30:44.216Z,100812.06
2023-03-16T16:33:34.893Z,100814.03
2023-03-16T16:36:25.203Z,100827.38
2023-03-16T16:39:16.153Z,100824.63
2023-03-16T16:42:05.282Z,100815.78
2023-03-16T16:44:54.757Z,100808.34
2023-03-16T16:47:52.367Z,100814.41
2023-03-16T16:50:41.424Z,100811.47
2023-03-16T16:53:30.800Z,100812.94
2023-03-16T16:56:24.567Z,100804.28
2023-03-16T16:59:18.129Z,100797.50
2023-03-16T17:02:25.204Z,100801.41
2023-03-16T17:05:21.244Z,100793.69
2023-03-16T17:08:12.296Z,100798.47
2023-03-16T17:11:01.010Z,100801.41
2023-03-16T17:13:50.561Z,100797.06
2023-03-16T17:16:39.332Z,100800.25
2023-03-16T17:19:29.221Z,100795.34
2023-03-16T17:22:24.401Z,100802.72
2023-03-16T17:25:14.350Z,100802.16
2023-03-16T17:28:03.784Z,100803.72
2023-03-16T17:30:52.716Z,100810.63
2023-03-16T17:33:42.250Z,100808.78
2023-03-16T17:36:31.348Z,100809.25
2023-03-16T17:39:22.692Z,100814.97
2023-03-16T17:42:14.201Z,100810.78
2023-03-16T17:45:04.905Z,100804.81
2023-03-16T17:47:55.696Z,100801.94
2023-03-16T17:50:46.134Z,100793.16
2023-03-16T17:53:34.697Z,100786.75
2023-03-16T17:56:27.812Z,100788.06
2023-03-16T17:59:18.101Z,100788.91
2023-03-16T18:02:18.863Z,100784.06
2023-03-16T18:05:10.311Z,100794.50
2023-03-16T18:08:01.035Z,100792.47
2023-03-16T18:10:51.810Z,100781.78
2023-03-16T18:13:42.464Z,100784.25
2023-03-16T18:16:31.426Z,100783.06
2023-03-16T18:19:25.209Z,100776.91
2023-03-16T18:22:19.498Z,100772.31
2023-03-16T18:25:26.765Z,100776.84
2023-03-16T18:28:15.880Z,100775.94
2023-03-16T18:31:07.730Z,100772.81
2023-03-16T18:33:58.065Z,100760.31
2023-03-16T18:36:46.864Z,100763.84
2023-03-16T18:39:35.516Z,100760.53
2023-03-16T18:42:27.798Z,100778.56
2023-03-16T18:45:17.601Z,100772.50
2023-03-16T18:48:11.351Z,100761.44
2023-03-16T18:51:00.045Z,100765.25
2023-03-16T18:53:50.788Z,100752.34
2023-03-16T18:56:39.481Z,100754.19
2023-03-16T18:59:28.568Z,100749.84
2023-03-16T19:02:29.870Z,100744.50
2023-03-16T19:05:23.596Z,100751.13
2023-03-16T19:08:14.534Z,100748.72
2023-03-16T19:11:04.466Z,100758.16
2023-03-16T19:13:54.716Z,100754.56
2023-03-16T19:16:44.031Z,100757.41
2023-03-16T19:19:32.706Z,100754.06
2023-03-16T19:22:23.920Z,100745.41
2023-03-16T19:25:18.313Z,100746.44
2023-03-16T19:28:08.877Z,100734.53
2023-03-16T19:30:58.045Z,100736.63
2023-03-16T19:33:46.926Z,100730.13
2023-03-16T19:36:38.356Z,100727.59
2023-03-16T19:39:28.890Z,100733.44
2023-03-16T19:42:22.594Z,100729.63
2023-03-16T19:45:18.535Z,100723.13
2023-03-16T19:48:13.648Z,100725.19
2023-03-16T19:51:02.761Z,100722.34
2023-03-16T19:53:51.415Z,100717.44
2023-03-16T19:56:41.599Z,100728.53
2023-03-16T19:59:33.157Z,100730.13
2023-03-16T20:02:26.543Z,100724.66
2023-03-16T20:05:20.183Z,100724.84
2023-03-16T20:08:22.757Z,100722.41
2023-03-16T20:11:18.564Z,100733.47
2023-03-16T20:14:19.571Z,100731.66
2023-03-16T20:17:11.389Z,100729.38
2023-03-16T20:20:00.152Z,100711.72
2023-03-16T20:22:48.893Z,100724.91
2023-03-16T20:25:37.494Z,100731.03
2023-03-16T20:28:30.068Z,100732.28
2023-03-16T20:31:22.500Z,100727.97
2023-03-16T20:34:20.711Z,100724.56
2023-03-16T20:37:25.664Z,100721.63
2023-03-16T20:40:14.598Z,100720.03
2023-03-16T20:43:04.204Z,100726.56
2023-03-16T20:45:53.202Z,100713.72
2023-03-16T20:48:43.330Z,100714.00
2023-03-16T20:51:32.022Z,100709.66
2023-03-16T20:54:20.661Z,100703.03
2023-03-16T20:57:15.759Z,100696.88
2023-03-16T21:00:05.558Z,100703.81
2023-03-16T21:02:55.649Z,100706.09
2023-03-16T21:05:46.496Z,100700.13
2023-03-16T21:08:35.107Z,100695.31
2023-03-16T21:11:25.543Z,100691.59
2023-03-16T21:14:18.060Z,100681.31
2023-03-16T21:17:07.596Z,100678.41
2023-03-16T21:19:57.036Z,100681.63
2023-03-16T21:22:47.474Z,100677.88
2023-03-16T21:25:39.052Z,100690.13
2023-03-16T21:28:30.361Z,100689.22
2023-03-16T21:31:19.755Z,100670.19
2023-03-16T21:34:19.992Z,100664.00
2023-03-16T21:37:28.092Z,100662.00
2023-03-16T21:40:33.209Z,100659.50
2023-03-16T21:43:41.919Z,100662.25
2023-03-16T21:46:31.345Z,100674.09
2023-03-16T21:49:20.244Z,100667.94
2023-03-16T21:52:12.852Z,100670.47
2023-03-16T21:55:01.986Z,100675.59
2023-03-16T21:57:53.008Z,100668.44
2023-03-16T22:00:41.833Z,100670.22
2023-03-16T22:03:47.918Z,100674.44
2023-03-16T22:06:41.482Z,100665.81
2023-03-16T22:09:33.077Z,100670.75
2023-03-16T22:12:21.774Z,100653.03
2023-03-16T22:15:12.760Z,100648.50
2023-03-16T22:18:03.761Z,100646.84
2023-03-16T22:20:52.846Z,100640.69
2023-03-16T22:23:42.302Z,100635.00
2023-03-16T22:26:35.544Z,100632.88
2023-03-16T22:29:47.141Z,100632.00
2023-03-16T22:32:37.147Z,100624.22
2023-03-16T22:35:32.341Z,100624.78
2023-03-16T22:38:21.305Z,100623.84
2023-03-16T22:41:13.868Z,100604.59
2023-03-16T22:44:03.080Z,100607.66
2023-03-16T22:46:51.832Z,100609.00
2023-03-16T22:49:43.310Z,100609.41
2023-03-16T22:52:34.569Z,100598.72
2023-03-16T22:55:25.732Z,100608.59
2023-03-16T22:58:19.872Z,100595.34
2023-03-16T23:01:17.116Z,100600.06
2023-03-16T23:04:14.470Z,100592.88
2023-03-16T23:07:04.564Z,100598.22
2023-03-16T23:09:54.089Z,100594.53
2023-03-16T23:12:42.784Z,100602.72
2023-03-16T23:15:32.529Z,100590.41
2023-03-16T23:18:23.976Z,100589.56
2023-03-16T23:21:15.389Z,100596.13
2023-03-16T23:24:06.260Z,100591.41
2023-03-16T23:26:55.725Z,100587.03
2023-03-16T23:29:44.686Z,100591.88
2023-03-16T23:32:33.359Z,100594.13
2023-03-16T23:35:25.021Z,100588.34
2023-03-16T23:38:14.234Z,100587.97
2023-03-16T23:41:04.139Z,100585.69
2023-03-16T23:43:53.177Z,100576.78
2023-03-16T23:46:42.144Z,100577.97
2023-03-16T23:49:32.811Z,100573.25
2023-03-16T23:52:21.627Z,100566.91
2023-03-16T23:55:14.326Z,100565.94
2023-03-16T23:58:04.378Z,100564.72
